sensor_id;sensor_type;location;lat;lon;timestamp;P1;durP1;ratioP1;P2;durP2;ratioP2
44919;SDS011;30655;53.094;6.072;2022-11-20T00:37:57;26.48;;;14.48;;
44919;SDS011;30655;53.094;6.072;2022-11-20T05:50:24;10.30;;;9.27;;
44919;SDS011;30655;53.094;6.072;2022-11-20T05:53:45;16.00;;;12.27;;
44919;SDS011;30655;53.094;6.072;2022-11-20T05:57:12;14.80;;;11.70;;
44919;SDS011;30655;53.094;6.072;2022-11-20T06:04:38;14.90;;;11.70;;
44919;SDS011;30655;53.094;6.072;2022-11-20T06:44:08;13.63;;;11.57;;
44919;SDS011;30655;53.094;6.072;2022-11-20T06:50:18;13.18;;;11.68;;
44919;SDS011;30655;53.094;6.072;2022-11-20T07:07:40;18.55;;;11.73;;
44919;SDS011;30655;53.094;6.072;2022-11-20T07:14:20;15.85;;;11.98;;
44919;SDS011;30655;53.094;6.072;2022-11-20T07:17:19;16.05;;;11.25;;
44919;SDS011;30655;53.094;6.072;2022-11-20T07:23:40;12.82;;;11.05;;
44919;SDS011;30655;53.094;6.072;2022-11-20T07:36:50;13.63;;;11.57;;
44919;SDS011;30655;53.094;6.072;2022-11-20T07:40:07;12.88;;;11.32;;
44919;SDS011;30655;53.094;6.072;2022-11-20T07:46:54;13.55;;;10.85;;
44919;SDS011;30655;53.094;6.072;2022-11-20T07:50:24;13.00;;;11.07;;
44919;SDS011;30655;53.094;6.072;2022-11-20T07:53:44;15.52;;;10.73;;
44919;SDS011;30655;53.094;6.072;2022-11-20T07:57:30;14.27;;;11.85;;
44919;SDS011;30655;53.094;6.072;2022-11-20T08:01:06;13.20;;;11.43;;
44919;SDS011;30655;53.094;6.072;2022-11-20T08:14:44;12.68;;;11.13;;
44919;SDS011;30655;53.094;6.072;2022-11-20T08:17:13;17.45;;;11.20;;
44919;SDS011;30655;53.094;6.072;2022-11-20T08:23:17;13.55;;;10.73;;
44919;SDS011;30655;53.094;6.072;2022-11-20T08:26:08;12.75;;;10.65;;
44919;SDS011;30655;53.094;6.072;2022-11-20T08:28:52;11.75;;;10.55;;
44919;SDS011;30655;53.094;6.072;2022-11-20T08:37:31;10.80;;;9.70;;
44919;SDS011;30655;53.094;6.072;2022-11-20T08:40:28;14.25;;;10.32;;
44919;SDS011;30655;53.094;6.072;2022-11-20T08:57:25;10.23;;;9.13;;
44919;SDS011;30655;53.094;6.072;2022-11-20T09:03:34;10.98;;;9.70;;
44919;SDS011;30655;53.094;6.072;2022-11-20T09:10:17;11.65;;;9.27;;
44919;SDS011;30655;53.094;6.072;2022-11-20T09:15:36;9.13;;;8.25;;
44919;SDS011;30655;53.094;6.072;2022-11-20T09:18:17;9.35;;;8.38;;
44919;SDS011;30655;53.094;6.072;2022-11-20T09:20:58;10.57;;;8.82;;
44919;SDS011;30655;53.094;6.072;2022-11-20T09:23:48;9.45;;;8.55;;
44919;SDS011;30655;53.094;6.072;2022-11-20T09:29:24;9.68;;;8.75;;
44919;SDS011;30655;53.094;6.072;2022-11-20T09:32:09;10.18;;;9.13;;
44919;SDS011;30655;53.094;6.072;2022-11-20T09:34:49;10.23;;;9.23;;
44919;SDS011;30655;53.094;6.072;2022-11-20T09:37:44;10.20;;;8.73;;
44919;SDS011;30655;53.094;6.072;2022-11-20T09:40:25;10.13;;;9.25;;
44919;SDS011;30655;53.094;6.072;2022-11-20T09:43:24;9.35;;;8.45;;
44919;SDS011;30655;53.094;6.072;2022-11-20T09:46:50;11.18;;;9.65;;
44919;SDS011;30655;53.094;6.072;2022-11-20T09:53:19;11.50;;;10.18;;
44919;SDS011;30655;53.094;6.072;2022-11-20T10:03:30;10.15;;;8.55;;
44919;SDS011;30655;53.094;6.072;2022-11-20T10:06:37;10.40;;;9.30;;
44919;SDS011;30655;53.094;6.072;2022-11-20T10:12:56;9.98;;;9.07;;
44919;SDS011;30655;53.094;6.072;2022-11-20T10:16:21;8.40;;;7.70;;
44919;SDS011;30655;53.094;6.072;2022-11-20T10:19:20;9.02;;;8.13;;
44919;SDS011;30655;53.094;6.072;2022-11-20T10:22:13;9.45;;;8.68;;
44919;SDS011;30655;53.094;6.072;2022-11-20T10:25:20;9.57;;;8.65;;
44919;SDS011;30655;53.094;6.072;2022-11-20T10:28:38;10.68;;;9.00;;
44919;SDS011;30655;53.094;6.072;2022-11-20T10:31:43;12.02;;;8.63;;
44919;SDS011;30655;53.094;6.072;2022-11-20T10:34:33;9.65;;;8.75;;
44919;SDS011;30655;53.094;6.072;2022-11-20T10:37:14;11.27;;;9.35;;
44919;SDS011;30655;53.094;6.072;2022-11-20T10:39:55;9.32;;;8.07;;
44919;SDS011;30655;53.094;6.072;2022-11-20T10:42:38;8.07;;;7.32;;
44919;SDS011;30655;53.094;6.072;2022-11-20T10:48:41;10.55;;;8.13;;
44919;SDS011;30655;53.094;6.072;2022-11-20T10:51:24;9.00;;;8.23;;
44919;SDS011;30655;53.094;6.072;2022-11-20T10:54:12;8.65;;;7.60;;
44919;SDS011;30655;53.094;6.072;2022-11-20T10:56:50;12.30;;;8.75;;
44919;SDS011;30655;53.094;6.072;2022-11-20T10:59:49;9.30;;;8.50;;
44919;SDS011;30655;53.094;6.072;2022-11-20T11:02:40;8.73;;;7.78;;
44919;SDS011;30655;53.094;6.072;2022-11-20T11:05:31;8.00;;;7.30;;
44919;SDS011;30655;53.094;6.072;2022-11-20T11:08:03;7.55;;;6.85;;
44919;SDS011;30655;53.094;6.072;2022-11-20T11:10:46;6.95;;;6.43;;
44919;SDS011;30655;53.094;6.072;2022-11-20T11:13:29;6.53;;;5.95;;
44919;SDS011;30655;53.094;6.072;2022-11-20T11:16:16;5.60;;;5.20;;
44919;SDS011;30655;53.094;6.072;2022-11-20T11:19:20;6.30;;;5.70;;
44919;SDS011;30655;53.094;6.072;2022-11-20T11:22:02;5.15;;;4.80;;
44919;SDS011;30655;53.094;6.072;2022-11-20T11:24:58;6.13;;;5.60;;
44919;SDS011;30655;53.094;6.072;2022-11-20T11:27:30;6.90;;;4.93;;
44919;SDS011;30655;53.094;6.072;2022-11-20T11:33:06;5.22;;;4.85;;
44919;SDS011;30655;53.094;6.072;2022-11-20T11:35:47;5.70;;;5.20;;
44919;SDS011;30655;53.094;6.072;2022-11-20T11:38:50;5.80;;;5.30;;
44919;SDS011;30655;53.094;6.072;2022-11-20T11:41:35;5.90;;;5.50;;
44919;SDS011;30655;53.094;6.072;2022-11-20T11:44:19;5.78;;;5.18;;
44919;SDS011;30655;53.094;6.072;2022-11-20T11:46:52;5.45;;;5.05;;
44919;SDS011;30655;53.094;6.072;2022-11-20T11:49:29;6.25;;;5.63;;
44919;SDS011;30655;53.094;6.072;2022-11-20T11:52:07;5.90;;;5.50;;
44919;SDS011;30655;53.094;6.072;2022-11-20T11:54:45;5.80;;;5.25;;
44919;SDS011;30655;53.094;6.072;2022-11-20T11:57:23;5.30;;;4.95;;
44919;SDS011;30655;53.094;6.072;2022-11-20T12:00:01;5.53;;;5.13;;
44919;SDS011;30655;53.094;6.072;2022-11-20T12:02:34;6.13;;;5.63;;
44919;SDS011;30655;53.094;6.072;2022-11-20T12:05:26;5.43;;;5.03;;
44919;SDS011;30655;53.094;6.072;2022-11-20T12:07:57;6.25;;;5.65;;
44919;SDS011;30655;53.094;6.072;2022-11-20T12:10:55;5.53;;;5.13;;
44919;SDS011;30655;53.094;6.072;2022-11-20T12:13:40;4.80;;;4.40;;
44919;SDS011;30655;53.094;6.072;2022-11-20T12:16:38;5.07;;;4.68;;
44919;SDS011;30655;53.094;6.072;2022-11-20T12:19:39;5.30;;;4.80;;
44919;SDS011;30655;53.094;6.072;2022-11-20T12:22:52;4.32;;;3.35;;
44919;SDS011;30655;53.094;6.072;2022-11-20T12:25:28;5.57;;;5.18;;
44919;SDS011;30655;53.094;6.072;2022-11-20T12:31:13;5.72;;;5.22;;
44919;SDS011;30655;53.094;6.072;2022-11-20T12:34:02;6.10;;;5.55;;
44919;SDS011;30655;53.094;6.072;2022-11-20T12:36:48;5.57;;;5.18;;
44919;SDS011;30655;53.094;6.072;2022-11-20T12:42:22;4.95;;;4.55;;
44919;SDS011;30655;53.094;6.072;2022-11-20T12:51:21;4.85;;;4.45;;
44919;SDS011;30655;53.094;6.072;2022-11-20T12:54:00;5.32;;;4.93;;
44919;SDS011;30655;53.094;6.072;2022-11-20T12:56:47;5.68;;;5.18;;
44919;SDS011;30655;53.094;6.072;2022-11-20T12:59:33;5.32;;;4.93;;
44919;SDS011;30655;53.094;6.072;2022-11-20T13:02:19;5.57;;;5.07;;
44919;SDS011;30655;53.094;6.072;2022-11-20T13:05:04;5.10;;;4.70;;
44919;SDS011;30655;53.094;6.072;2022-11-20T13:07:47;5.43;;;4.88;;
44919;SDS011;30655;53.094;6.072;2022-11-20T13:10:21;5.78;;;5.18;;
44919;SDS011;30655;53.094;6.072;2022-11-20T13:13:03;8.05;;;4.55;;
44919;SDS011;30655;53.094;6.072;2022-11-20T13:15:42;5.90;;;5.40;;
44919;SDS011;30655;53.094;6.072;2022-11-20T13:18:20;6.00;;;5.50;;
44919;SDS011;30655;53.094;6.072;2022-11-20T13:20:57;5.78;;;5.28;;
44919;SDS011;30655;53.094;6.072;2022-11-20T13:23:24;5.78;;;5.18;;
44919;SDS011;30655;53.094;6.072;2022-11-20T13:26:03;5.95;;;5.05;;
44919;SDS011;30655;53.094;6.072;2022-11-20T13:29:00;5.57;;;5.18;;
44919;SDS011;30655;53.094;6.072;2022-11-20T13:31:41;5.78;;;5.28;;
44919;SDS011;30655;53.094;6.072;2022-11-20T13:34:22;5.55;;;5.05;;
44919;SDS011;30655;53.094;6.072;2022-11-20T13:36:51;6.28;;;5.70;;
44919;SDS011;30655;53.094;6.072;2022-11-20T13:39:34;5.68;;;5.18;;
44919;SDS011;30655;53.094;6.072;2022-11-20T13:42:18;6.03;;;5.40;;
44919;SDS011;30655;53.094;6.072;2022-11-20T13:44:54;6.20;;;5.35;;
44919;SDS011;30655;53.094;6.072;2022-11-20T13:47:38;6.32;;;5.75;;
44919;SDS011;30655;53.094;6.072;2022-11-20T13:50:31;6.88;;;6.03;;
44919;SDS011;30655;53.094;6.072;2022-11-20T13:53:36;5.70;;;5.25;;
44919;SDS011;30655;53.094;6.072;2022-11-20T13:56:29;6.10;;;5.60;;
44919;SDS011;30655;53.094;6.072;2022-11-20T13:59:20;7.13;;;6.07;;
44919;SDS011;30655;53.094;6.072;2022-11-20T14:02:16;27.05;;;10.63;;
44919;SDS011;30655;53.094;6.072;2022-11-20T14:04:54;6.80;;;6.25;;
44919;SDS011;30655;53.094;6.072;2022-11-20T14:07:44;7.35;;;6.63;;
44919;SDS011;30655;53.094;6.072;2022-11-20T14:10:27;6.57;;;6.03;;
44919;SDS011;30655;53.094;6.072;2022-11-20T14:13:09;7.18;;;5.43;;
44919;SDS011;30655;53.094;6.072;2022-11-20T14:15:45;6.90;;;6.25;;
44919;SDS011;30655;53.094;6.072;2022-11-20T14:18:20;6.10;;;5.57;;
44919;SDS011;30655;53.094;6.072;2022-11-20T14:21:01;8.60;;;6.07;;
44919;SDS011;30655;53.094;6.072;2022-11-20T14:23:39;6.88;;;6.25;;
44919;SDS011;30655;53.094;6.072;2022-11-20T14:26:11;7.45;;;6.82;;
44919;SDS011;30655;53.094;6.072;2022-11-20T14:28:57;10.38;;;8.30;;
44919;SDS011;30655;53.094;6.072;2022-11-20T14:31:36;6.80;;;6.00;;
44919;SDS011;30655;53.094;6.072;2022-11-20T14:34:40;7.55;;;6.55;;
44919;SDS011;30655;53.094;6.072;2022-11-20T14:38:54;6.20;;;5.70;;
44919;SDS011;30655;53.094;6.072;2022-11-20T14:45:13;8.63;;;7.60;;
44919;SDS011;30655;53.094;6.072;2022-11-20T14:47:48;11.35;;;9.05;;
44919;SDS011;30655;53.094;6.072;2022-11-20T14:50:31;7.65;;;6.60;;
44919;SDS011;30655;53.094;6.072;2022-11-20T14:53:12;14.85;;;9.57;;
44919;SDS011;30655;53.094;6.072;2022-11-20T14:56:02;11.65;;;9.38;;
44919;SDS011;30655;53.094;6.072;2022-11-20T14:58:30;7.50;;;6.90;;
44919;SDS011;30655;53.094;6.072;2022-11-20T15:01:05;7.18;;;6.28;;
44919;SDS011;30655;53.094;6.072;2022-11-20T15:03:34;7.63;;;6.75;;
44919;SDS011;30655;53.094;6.072;2022-11-20T15:06:05;7.13;;;6.53;;
44919;SDS011;30655;53.094;6.072;2022-11-20T15:08:38;6.57;;;6.07;;
44919;SDS011;30655;53.094;6.072;2022-11-20T15:15:10;7.65;;;7.05;;
44919;SDS011;30655;53.094;6.072;2022-11-20T15:21:42;7.10;;;6.57;;
44919;SDS011;30655;53.094;6.072;2022-11-20T15:24:17;7.07;;;6.47;;
44919;SDS011;30655;53.094;6.072;2022-11-20T15:29:59;9.73;;;6.53;;
44919;SDS011;30655;53.094;6.072;2022-11-20T15:32:38;7.07;;;6.53;;
44919;SDS011;30655;53.094;6.072;2022-11-20T15:41:17;8.05;;;7.35;;
44919;SDS011;30655;53.094;6.072;2022-11-20T15:51:00;10.95;;;9.80;;
44919;SDS011;30655;53.094;6.072;2022-11-20T15:53:39;11.00;;;10.00;;
44919;SDS011;30655;53.094;6.072;2022-11-20T15:59:20;14.05;;;11.55;;
44919;SDS011;30655;53.094;6.072;2022-11-20T16:02:15;22.20;;;15.27;;
44919;SDS011;30655;53.094;6.072;2022-11-20T16:04:50;33.78;;;17.42;;
44919;SDS011;30655;53.094;6.072;2022-11-20T16:08:00;53.17;;;28.50;;
44919;SDS011;30655;53.094;6.072;2022-11-20T16:17:20;10.80;;;9.80;;
44919;SDS011;30655;53.094;6.072;2022-11-20T16:29:30;10.10;;;9.18;;
44919;SDS011;30655;53.094;6.072;2022-11-20T16:32:15;9.95;;;9.05;;
44919;SDS011;30655;53.094;6.072;2022-11-20T18:17:19;13.27;;;11.93;;
44919;SDS011;30655;53.094;6.072;2022-11-20T18:22:11;15.73;;;13.10;;
44919;SDS011;30655;53.094;6.072;2022-11-20T18:24:00;16.15;;;13.45;;
44919;SDS011;30655;53.094;6.072;2022-11-20T18:26:36;18.02;;;13.23;;
44919;SDS011;30655;53.094;6.072;2022-11-20T21:12:14;31.75;;;18.55;;
44919;SDS011;30655;53.094;6.072;2022-11-20T21:15:51;27.98;;;17.95;;
44919;SDS011;30655;53.094;6.072;2022-11-20T21:18:46;28.60;;;18.42;;
44919;SDS011;30655;53.094;6.072;2022-11-20T21:46:56;30.27;;;18.52;;
44919;SDS011;30655;53.094;6.072;2022-11-20T21:50:05;30.35;;;19.80;;
44919;SDS011;30655;53.094;6.072;2022-11-20T21:57:33;32.75;;;19.20;;
44919;SDS011;30655;53.094;6.072;2022-11-20T22:14:25;30.35;;;20.02;;
44919;SDS011;30655;53.094;6.072;2022-11-20T22:24:44;28.67;;;18.77;;
44919;SDS011;30655;53.094;6.072;2022-11-20T22:49:11;31.83;;;19.67;;
44919;SDS011;30655;53.094;6.072;2022-11-20T22:59:15;27.58;;;18.77;;
44919;SDS011;30655;53.094;6.072;2022-11-20T23:09:46;29.45;;;19.15;;
